Time;durP1;ratioP1;P1;durP2;ratioP2;P2;SDS_P1;SDS_P2;PMS_P1;PMS_P2;Temp;Humidity;BMP_temperature;BMP_pressure;BME280_temperature;BME280_humidity;BME280_pressure;Samples;Min_cycle;Max_cycle;Signal;HPM_P1;HPM_P2
2023/06/24 00:01:25;;;;;;;7.60;6.50;;;;;;;15.59;100.00;101006.73;105498;1253;69210;-62
2023/06/24 00:03:59;;;;;;;7.70;5.80;;;;;;;15.55;100.00;101008.18;105588;1256;69149;-63
2023/06/24 00:06:33;;;;;;;8.30;6.50;;;;;;;15.51;100.00;101008.56;105538;1255;75208;-64
2023/06/24 00:09:04;;;;;;;8.90;6.80;;;;;;;15.46;100.00;101011.48;105552;1253;83367;-62
2023/06/24 00:11:39;;;;;;;8.00;7.20;;;;;;;15.43;100.00;101013.02;105503;1256;73794;-62
2023/06/24 00:14:11;;;;;;;8.60;7.10;;;;;;;15.42;100.00;101014.64;105538;1253;69184;-60
2023/06/24 00:16:41;;;;;;;10.00;7.10;;;;;;;15.39;100.00;101016.70;105493;1256;69234;-60
2023/06/24 00:19:18;;;;;;;8.20;6.70;;;;;;;15.36;100.00;101017.91;105558;1253;74923;-61
2023/06/24 00:21:51;;;;;;;10.00;6.90;;;;;;;15.33;100.00;101021.39;105532;1256;83633;-60
2023/06/24 00:24:25;;;;;;;8.60;6.90;;;;;;;15.31;100.00;101025.33;105540;1253;73827;-64
2023/06/24 00:26:57;;;;;;;9.60;6.50;;;;;;;15.30;100.00;101028.42;105530;1255;69583;-61
2023/06/24 00:29:48;;;;;;;7.40;6.60;;;;;;;15.28;100.00;101028.15;105484;1253;69187;-61
2023/06/24 00:32:26;;;;;;;11.10;7.00;;;;;;;15.26;100.00;101020.13;105520;1256;73410;-64
2023/06/24 00:35:04;;;;;;;7.90;6.80;;;;;;;15.27;100.00;101023.78;105509;1255;83477;-59
2023/06/24 00:37:40;;;;;;;8.10;6.70;;;;;;;15.27;100.00;101022.20;105500;1253;73717;-61
2023/06/24 00:40:14;;;;;;;8.50;6.70;;;;;;;15.25;100.00;101024.41;105509;1253;69167;-60
2023/06/24 00:42:49;;;;;;;7.00;5.80;;;;;;;15.23;100.00;101022.55;105532;1253;69138;-60
2023/06/24 00:45:23;;;;;;;8.30;6.90;;;;;;;15.25;100.00;101024.08;105465;1253;75034;-62
2023/06/24 00:47:58;;;;;;;11.00;7.30;;;;;;;15.26;100.00;101029.83;105520;1253;83587;-64
2023/06/24 00:50:33;;;;;;;10.40;7.50;;;;;;;15.26;100.00;101028.58;105504;1257;72055;-63
2023/06/24 00:53:06;;;;;;;9.60;7.70;;;;;;;15.28;100.00;101035.55;105561;1253;69220;-62
2023/06/24 00:55:40;;;;;;;8.80;7.20;;;;;;;15.27;100.00;101032.94;105488;1255;69241;-61
2023/06/24 00:58:18;;;;;;;8.90;6.70;;;;;;;15.27;100.00;101036.98;105568;1253;74889;-59
2023/06/24 01:00:57;;;;;;;9.00;7.60;;;;;;;15.29;100.00;101034.08;105507;1254;83845;-62
2023/06/24 01:03:33;;;;;;;11.20;7.50;;;;;;;15.29;100.00;101034.59;105519;1254;73731;-60
2023/06/24 01:06:08;;;;;;;9.40;7.60;;;;;;;15.31;100.00;101036.27;105570;1253;69187;-62
2023/06/24 01:08:40;;;;;;;13.60;7.80;;;;;;;15.32;100.00;101039.91;105510;1257;69203;-62
2023/06/24 01:11:12;;;;;;;10.00;7.70;;;;;;;15.32;100.00;101042.21;105555;1255;75224;-61
2023/06/24 01:13:53;;;;;;;8.80;7.90;;;;;;;15.32;100.00;101045.54;105509;1255;82568;-61
2023/06/24 01:16:56;;;;;;;9.10;7.40;;;;;;;15.32;100.00;101049.75;105542;1255;73708;-62
2023/06/24 01:20:11;;;;;;;8.30;6.70;;;;;;;15.32;100.00;101052.59;105496;1254;69136;-60
2023/06/24 01:23:02;;;;;;;8.40;7.00;;;;;;;15.32;100.00;101056.09;105016;1262;69305;-63
2023/06/24 01:25:44;;;;;;;8.70;7.00;;;;;;;15.31;100.00;101057.91;105017;1262;74831;-60
2023/06/24 01:28:31;;;;;;;9.90;7.00;;;;;;;15.32;100.00;101057.51;105000;1262;83592;-62
2023/06/24 01:31:30;;;;;;;8.70;6.70;;;;;;;15.30;100.00;101058.15;104923;1260;74421;-60
2023/06/24 01:34:30;;;;;;;16.20;7.60;;;;;;;15.22;100.00;101057.65;105065;1262;69381;-62
2023/06/24 01:37:35;;;;;;;10.10;7.10;;;;;;;15.15;100.00;101055.29;105050;1260;69115;-62
2023/06/24 01:40:11;;;;;;;9.40;7.10;;;;;;;15.12;100.00;101052.30;105049;1260;74160;-61
2023/06/24 01:42:53;;;;;;;11.30;7.30;;;;;;;15.08;100.00;101049.48;104989;1262;83646;-60
2023/06/24 01:45:37;;;;;;;10.10;7.40;;;;;;;15.07;100.00;101051.45;104983;1261;72916;-62
2023/06/24 01:48:15;;;;;;;11.30;8.00;;;;;;;15.05;100.00;101053.51;105007;1260;69266;-62
2023/06/24 01:51:00;;;;;;;11.10;7.50;;;;;;;15.02;100.00;101059.07;105013;1262;69295;-62
2023/06/24 01:53:38;;;;;;;9.70;6.90;;;;;;;15.02;100.00;101063.14;104887;1260;74066;-62
2023/06/24 01:56:12;;;;;;;8.80;6.40;;;;;;;15.00;100.00;101063.57;105014;1260;83311;-64
2023/06/24 01:58:52;;;;;;;7.80;6.20;;;;;;;14.99;100.00;101061.52;105009;1260;73456;-61
2023/06/24 02:01:26;;;;;;;8.30;6.10;;;;;;;14.96;100.00;101066.20;105454;1259;69187;-62
2023/06/24 02:04:00;;;;;;;9.60;5.80;;;;;;;14.95;100.00;101072.95;105608;1254;69221;-61
2023/06/24 02:06:40;;;;;;;7.30;5.20;;;;;;;14.96;100.00;101076.78;105577;1254;74909;-60
2023/06/24 02:09:24;;;;;;;6.10;5.20;;;;;;;14.96;100.00;101078.16;105497;1253;83366;-62
2023/06/24 02:12:00;;;;;;;6.80;5.10;;;;;;;14.93;100.00;101082.86;105516;1255;73738;-61
2023/06/24 02:14:33;;;;;;;6.40;4.80;;;;;;;14.91;100.00;101085.96;105473;1257;69295;-61
2023/06/24 02:17:07;;;;;;;7.40;4.90;;;;;;;14.89;100.00;101091.83;105464;1257;69176;-62
2023/06/24 02:19:44;;;;;;;6.60;4.10;;;;;;;14.87;100.00;101101.08;105566;1256;74819;-62
2023/06/24 02:22:20;;;;;;;6.90;3.80;;;;;;;14.84;100.00;101104.59;105467;1258;83478;-62
2023/06/24 02:24:55;;;;;;;4.40;3.70;;;;;;;14.83;100.00;101105.31;105470;1257;73657;-60
2023/06/24 02:27:30;;;;;;;6.50;3.80;;;;;;;14.81;100.00;101107.52;105313;1253;70357;-64
2023/06/24 02:30:07;;;;;;;4.90;4.00;;;;;;;14.78;100.00;101109.91;105497;1259;69174;-62
2023/06/24 02:32:56;;;;;;;7.00;3.90;;;;;;;14.76;100.00;101112.48;105501;1257;73951;-60
2023/06/24 02:35:53;;;;;;;4.20;3.60;;;;;;;14.75;100.00;101116.40;105535;1256;82626;-66
2023/06/24 02:38:39;;;;;;;4.30;3.50;;;;;;;14.72;100.00;101115.80;105511;1255;73505;-59
2023/06/24 02:41:43;;;;;;;7.50;4.00;;;;;;;14.70;100.00;101124.34;105507;1255;69182;-62
2023/06/24 02:44:49;;;;;;;5.40;4.20;;;;;;;14.68;100.00;101125.50;105498;1257;69208;-62
2023/06/24 02:48:22;;;;;;;4.60;3.50;;;;;;;14.67;100.00;101122.72;105535;1256;74802;-62
2023/06/24 02:51:56;;;;;;;5.00;3.40;;;;;;;14.66;100.00;101121.18;105342;1256;83102;-64
2023/06/24 02:55:22;;;;;;;6.00;3.10;;;;;;;14.62;100.00;101122.22;105508;1253;72738;-61
2023/06/24 02:58:54;;;;;;;;;;;;;;;;;;;;;
2023/06/24 03:01:57;;;;;;;4.10;3.60;;;;;;;14.55;100.00;101120.94;105361;1256;69206;-64
2023/06/24 03:05:03;;;;;;;5.40;3.90;;;;;;;14.57;100.00;101126.32;105498;1254;74263;-62
2023/06/24 03:07:57;;;;;;;4.10;3.70;;;;;;;14.58;100.00;101124.52;105504;1257;83401;-63
2023/06/24 03:10:49;;;;;;;5.30;4.20;;;;;;;14.58;100.00;101127.66;105464;1259;73089;-61
2023/06/24 03:14:02;;;;;;;6.70;4.20;;;;;;;14.57;100.00;101126.14;105480;1257;69193;-62
2023/06/24 03:17:24;;;;;;;6.70;4.20;;;;;;;14.58;100.00;101129.45;105494;1256;69209;-63
2023/06/24 03:20:38;;;;;;;5.30;4.20;;;;;;;14.61;100.00;101132.29;105499;1257;75004;-64
2023/06/24 03:23:39;;;;;;;;;;;;;;;;;;;;;
2023/06/24 03:26:45;;;;;;;6.10;4.30;;;;;;;14.60;100.00;101137.42;105453;1253;72659;-60
2023/06/24 03:29:32;;;;;;;8.00;4.60;;;;;;;14.63;100.00;101139.08;105510;1254;69183;-63
2023/06/24 03:32:15;;;;;;;5.80;4.80;;;;;;;14.66;100.00;101135.80;105526;1258;69092;-62
2023/06/24 03:35:03;;;;;;;5.80;4.50;;;;;;;14.68;100.00;101138.17;105522;1256;75132;-60
2023/06/24 03:37:47;;;;;;;5.00;4.30;;;;;;;14.70;100.00;101140.36;105518;1256;83692;-63
2023/06/24 03:40:21;;;;;;;5.90;4.40;;;;;;;14.70;100.00;101143.37;105580;1256;73702;-62
2023/06/24 03:42:57;;;;;;;6.90;4.80;;;;;;;14.69;100.00;101144.61;105614;1255;69177;-64
2023/06/24 03:45:31;;;;;;;5.00;4.10;;;;;;;14.69;100.00;101149.01;105542;1256;69678;-62
2023/06/24 03:48:04;;;;;;;4.50;3.90;;;;;;;14.66;100.00;101150.89;105550;1257;74918;-63
2023/06/24 03:50:41;;;;;;;5.90;4.00;;;;;;;14.67;100.00;101152.98;105452;1253;82520;-60
2023/06/24 03:53:19;;;;;;;7.60;4.10;;;;;;;14.69;100.00;101156.23;105449;1258;73616;-60
2023/06/24 03:55:54;;;;;;;5.40;3.70;;;;;;;14.72;100.00;101158.77;105453;1257;69190;-60
2023/06/24 03:58:28;;;;;;;6.50;4.10;;;;;;;14.73;100.00;101162.20;105485;1258;69212;-60
2023/06/24 04:01:05;;;;;;;5.70;3.90;;;;;;;14.74;100.00;101162.87;105449;1254;73830;-60
2023/06/24 04:03:43;;;;;;;7.00;4.40;;;;;;;14.75;100.00;101165.16;105476;1254;83734;-62
2023/06/24 04:06:43;;;;;;;4.70;3.90;;;;;;;14.72;100.00;101166.81;105512;1254;72857;-61
2023/06/24 04:09:39;;;;;;;;;;;;;;;;;;;;;
2023/06/24 04:12:38;;;;;;;4.50;4.10;;;;;;;14.73;100.00;101163.28;105596;1257;69190;-62
2023/06/24 04:15:29;;;;;;;8.70;4.30;;;;;;;14.80;100.00;101166.48;105420;1254;75111;-61
2023/06/24 04:18:09;;;;;;;5.00;3.90;;;;;;;14.84;100.00;101164.23;105442;1255;83426;-60
2023/06/24 04:21:12;;;;;;;4.60;4.10;;;;;;;14.87;100.00;101167.08;105463;1257;73632;-61
2023/06/24 04:24:05;;;;;;;5.70;4.00;;;;;;;14.91;100.00;101167.27;105532;1254;69203;-62
2023/06/24 04:26:53;;;;;;;4.60;4.00;;;;;;;14.95;100.00;101168.85;105511;1257;69180;-60
2023/06/24 04:29:32;;;;;;;;;;;;;;;14.98;100.00;101166.27;105565;1257;74972;-60
2023/06/24 04:32:12;;;;;;;4.60;4.20;;;;;;;15.01;100.00;101168.76;105494;1256;82655;-60
2023/06/24 04:34:46;;;;;;;4.50;4.00;;;;;;;15.02;100.00;101170.84;105596;1259;73961;-60
2023/06/24 04:37:26;;;;;;;5.70;4.50;;;;;;;15.03;100.00;101168.70;105559;1254;69079;-60
2023/06/24 04:40:01;;;;;;;6.20;4.30;;;;;;;15.04;100.00;101169.86;105610;1257;69163;-64
2023/06/24 04:42:40;;;;;;;5.00;4.20;;;;;;;15.04;100.00;101173.89;105530;1256;75144;-61
2023/06/24 04:45:17;;;;;;;5.20;4.30;;;;;;;15.06;100.00;101175.23;105545;1257;82561;-60
2023/06/24 04:47:58;;;;;;;5.70;4.80;;;;;;;15.10;100.00;101180.35;105506;1256;72692;-61
2023/06/24 04:50:32;;;;;;;5.50;4.40;;;;;;;15.11;100.00;101179.92;105549;1255;69193;-62
2023/06/24 04:53:05;;;;;;;5.90;5.00;;;;;;;15.15;100.00;101180.83;105558;1254;69582;-62
2023/06/24 04:55:39;;;;;;;7.40;5.80;;;;;;;15.19;100.00;101182.60;105547;1256;74845;-60
2023/06/24 04:58:13;;;;;;;8.80;5.50;;;;;;;15.22;100.00;101181.26;105536;1253;83487;-59
2023/06/24 05:00:53;;;;;;;7.10;5.60;;;;;;;15.25;100.00;101183.94;105540;1256;73919;-63
2023/06/24 05:03:27;;;;;;;6.60;5.80;;;;;;;15.27;100.00;101183.98;105552;1258;69271;-62
2023/06/24 05:06:06;;;;;;;8.20;5.70;;;;;;;15.29;100.00;101177.42;105570;1256;69513;-59
2023/06/24 05:08:42;;;;;;;10.30;6.40;;;;;;;15.31;100.00;101177.46;105559;1254;75003;-59
2023/06/24 05:11:30;;;;;;;9.80;7.10;;;;;;;15.34;100.00;101181.20;105544;1258;83382;-60
2023/06/24 05:14:04;;;;;;;10.40;6.70;;;;;;;15.35;100.00;101184.17;105485;1257;73919;-62
2023/06/24 05:16:36;;;;;;;7.70;6.40;;;;;;;15.37;100.00;101187.42;105550;1251;69187;-61
2023/06/24 05:19:17;;;;;;;9.00;6.80;;;;;;;15.39;100.00;101188.92;105547;1256;69204;-60
2023/06/24 05:21:49;;;;;;;11.20;7.60;;;;;;;15.40;100.00;101190.98;105527;1257;74735;-61
2023/06/24 05:24:25;;;;;;;9.30;7.20;;;;;;;15.43;100.00;101192.48;105550;1257;83450;-62
2023/06/24 05:27:14;;;;;;;11.00;7.70;;;;;;;15.46;100.00;101189.17;105619;1254;72577;-60
2023/06/24 05:29:45;;;;;;;9.40;7.50;;;;;;;15.49;100.00;101189.52;105477;1257;69241;-59
2023/06/24 05:32:17;;;;;;;14.90;8.40;;;;;;;15.52;100.00;101190.45;105595;1254;69133;-60
2023/06/24 05:34:46;;;;;;;11.40;8.40;;;;;;;15.59;100.00;101191.40;105581;1258;75146;-59
2023/06/24 05:37:15;;;;;;;9.50;8.30;;;;;;;15.64;100.00;101191.50;105708;1254;83899;-59
2023/06/24 05:39:44;;;;;;;9.50;8.40;;;;;;;15.66;100.00;101194.08;105748;1257;73933;-58
2023/06/24 05:42:16;;;;;;;10.80;7.90;;;;;;;15.69;100.00;101196.08;105505;1253;69059;-59
2023/06/24 05:44:47;;;;;;;13.40;8.40;;;;;;;15.72;100.00;101199.27;105603;1258;69174;-58
2023/06/24 05:47:16;;;;;;;10.20;8.80;;;;;;;15.74;100.00;101196.02;105632;1256;75256;-59
2023/06/24 05:49:51;;;;;;;11.90;8.90;;;;;;;15.76;100.00;101195.21;105475;1257;81730;-59
2023/06/24 05:52:20;;;;;;;11.70;8.70;;;;;;;15.78;100.00;101200.06;105560;1258;73737;-58
2023/06/24 05:54:52;;;;;;;12.50;9.00;;;;;;;15.83;100.00;101203.69;105596;1257;69162;-59
2023/06/24 05:57:23;;;;;;;9.80;8.80;;;;;;;15.92;100.00;101208.79;105573;1256;69781;-59
2023/06/24 05:59:52;;;;;;;10.90;8.70;;;;;;;16.00;100.00;101209.80;105638;1258;74715;-59
2023/06/24 06:02:21;;;;;;;12.20;9.10;;;;;;;16.08;100.00;101210.11;105629;1255;83448;-58
2023/06/24 06:04:50;;;;;;;12.60;10.20;;;;;;;16.13;100.00;101215.71;105482;1254;73737;-57
2023/06/24 06:07:19;;;;;;;12.30;9.30;;;;;;;16.14;100.00;101216.17;105349;1257;352299;-58
2023/06/24 06:09:50;;;;;;;12.20;8.90;;;;;;;16.19;100.00;101216.84;105597;1253;69198;-56
2023/06/24 06:12:21;;;;;;;13.50;9.90;;;;;;;16.28;100.00;101215.16;105758;1254;73914;-57
2023/06/24 06:14:53;;;;;;;11.80;10.30;;;;;;;16.38;100.00;101212.06;105563;1257;83560;-58
2023/06/24 06:17:24;;;;;;;11.70;9.70;;;;;;;16.46;100.00;101213.96;105601;1254;73953;-58
2023/06/24 06:19:55;;;;;;;13.60;10.10;;;;;;;16.54;100.00;101214.48;105718;1254;69206;-57
2023/06/24 06:22:24;;;;;;;13.60;9.90;;;;;;;16.59;100.00;101214.71;105621;1254;69196;-57
2023/06/24 06:24:55;;;;;;;12.30;10.00;;;;;;;16.66;100.00;101209.45;105701;1256;74910;-57
2023/06/24 06:27:27;;;;;;;12.30;9.70;;;;;;;16.70;100.00;101212.25;105589;1256;83717;-58
2023/06/24 06:29:56;;;;;;;15.80;11.50;;;;;;;16.73;100.00;101213.16;105470;1257;73663;-57
2023/06/24 06:32:24;;;;;;;12.40;10.70;;;;;;;16.77;100.00;101212.80;105575;1257;69285;-57
2023/06/24 06:34:53;;;;;;;13.50;11.20;;;;;;;16.82;100.00;101214.69;105419;1254;69193;-56
2023/06/24 06:37:22;;;;;;;15.50;11.60;;;;;;;16.85;100.00;101217.33;105561;1256;75024;-56
2023/06/24 06:39:50;;;;;;;14.40;11.20;;;;;;;16.87;100.00;101218.66;105521;1253;82488;-58
2023/06/24 06:42:21;;;;;;;13.20;11.20;;;;;;;16.89;100.00;101216.95;105440;1258;73726;-58
2023/06/24 06:44:49;;;;;;;15.30;11.70;;;;;;;16.96;100.00;101211.52;105467;1256;69173;-57
2023/06/24 06:47:18;;;;;;;15.70;12.30;;;;;;;17.04;100.00;101210.71;105521;1257;69089;-57
2023/06/24 06:49:46;;;;;;;13.90;12.10;;;;;;;17.11;100.00;101209.11;105494;1255;75096;-56
2023/06/24 06:52:15;;;;;;;14.00;12.30;;;;;;;17.19;100.00;101211.76;105631;1257;83316;-58
2023/06/24 06:54:45;;;;;;;;;;;;;;;17.26;100.00;101210.70;105552;1254;74757;-57
2023/06/24 06:57:13;;;;;;;14.60;12.00;;;;;;;17.35;100.00;101213.55;105484;1265;69194;-56
2023/06/24 06:59:42;;;;;;;15.00;12.80;;;;;;;17.43;100.00;101214.23;105500;1255;69157;-57
2023/06/24 07:02:10;;;;;;;13.60;12.20;;;;;;;17.49;100.00;101214.73;105531;1257;73892;-57
2023/06/24 07:04:39;;;;;;;15.10;13.20;;;;;;;17.61;100.00;101216.79;105547;1257;83257;-57
2023/06/24 07:07:07;;;;;;;17.10;13.60;;;;;;;17.69;100.00;101218.80;105476;1254;72788;-56
2023/06/24 07:09:35;;;;;;;17.30;14.10;;;;;;;17.81;100.00;101217.49;105580;1256;69214;-56
2023/06/24 07:12:05;;;;;;;18.20;13.10;;;;;;;17.93;100.00;101217.02;105679;1257;69097;-56
2023/06/24 07:14:33;;;;;;;;;;;;;;;18.09;100.00;101217.55;105676;1256;75687;-58
2023/06/24 07:17:02;;;;;;;14.30;12.20;;;;;;;18.24;100.00;101217.61;105612;1254;83032;-58
2023/06/24 07:19:30;;;;;;;14.80;12.70;;;;;;;18.38;100.00;101211.89;105599;1257;73029;-55
2023/06/24 07:21:59;;;;;;;15.70;12.20;;;;;;;18.51;100.00;101212.03;105534;1257;69629;-56
2023/06/24 07:24:27;;;;;;;13.40;12.00;;;;;;;18.65;100.00;101212.44;105689;1254;69402;-57
2023/06/24 07:26:56;;;;;;;15.50;12.60;;;;;;;18.74;100.00;101215.11;105642;1257;73912;-57
2023/06/24 07:29:24;;;;;;;14.80;12.10;;;;;;;18.72;100.00;101211.48;105598;1258;83592;-80
2023/06/24 07:31:53;;;;;;;13.20;11.70;;;;;;;18.72;100.00;101212.91;105623;1256;73964;-77
2023/06/24 07:34:21;;;;;;;15.60;12.70;;;;;;;18.73;100.00;101214.44;105675;1254;69220;-78
2023/06/24 07:36:50;;;;;;;12.90;11.60;;;;;;;18.71;100.00;101212.27;105609;1254;69067;-78
2023/06/24 07:39:19;;;;;;;13.70;12.20;;;;;;;18.69;100.00;101214.34;105615;1256;75106;-79
2023/06/24 07:41:47;;;;;;;14.70;11.80;;;;;;;18.64;100.00;101212.14;105433;1257;83390;-79
2023/06/24 07:44:16;;;;;;;15.50;11.60;;;;;;;18.57;100.00;101213.27;105733;1259;73628;-79
2023/06/24 07:46:44;;;;;;;15.60;10.40;;;;;;;18.51;100.00;101219.61;105445;1257;69207;-70
2023/06/24 07:49:13;;;;;;;14.20;10.70;;;;;;;18.49;100.00;101220.75;105565;1254;69221;-71
2023/06/24 07:51:41;;;;;;;14.60;11.90;;;;;;;18.48;100.00;101224.39;105710;1254;73953;-69
2023/06/24 07:54:10;;;;;;;12.60;11.20;;;;;;;18.43;100.00;101221.65;105487;1257;83666;-71
2023/06/24 07:56:39;;;;;;;19.60;12.90;;;;;;;18.37;100.00;101216.71;105635;1256;72433;-69
2023/06/24 07:59:07;;;;;;;13.50;12.10;;;;;;;18.40;100.00;101220.94;105478;1257;69139;-70
2023/06/24 08:01:35;;;;;;;13.50;10.40;;;;;;;18.44;100.00;101222.15;105588;1257;69103;-71
2023/06/24 08:04:04;;;;;;;11.50;10.10;;;;;;;18.50;100.00;101222.84;105558;1254;76131;-72
2023/06/24 08:06:33;;;;;;;16.70;10.60;;;;;;;18.59;100.00;101228.91;105683;1254;82547;-73
2023/06/24 08:09:01;;;;;;;12.30;11.00;;;;;;;18.67;100.00;101229.69;105621;1257;73634;-71
2023/06/24 08:11:30;;;;;;;14.90;10.20;;;;;;;18.72;100.00;101227.81;106440;1254;69017;-71
2023/06/24 08:13:58;;;;;;;13.20;10.60;;;;;;;18.80;100.00;101222.95;105710;1254;69078;-71
2023/06/24 08:16:27;;;;;;;11.00;10.00;;;;;;;18.84;100.00;101220.91;105504;1257;75167;-76
2023/06/24 08:18:55;;;;;;;13.70;9.30;;;;;;;18.86;100.00;101222.79;105745;1256;82477;-74
2023/06/24 08:21:24;;;;;;;11.00;8.70;;;;;;;18.85;100.00;101223.01;105550;1257;74204;-74
2023/06/24 08:23:52;;;;;;;11.90;9.00;;;;;;;18.89;100.00;101223.83;105577;1257;69157;-73
2023/06/24 08:26:23;;;;;;;11.90;8.90;;;;;;;18.96;100.00;101226.75;105437;1254;69191;-81
2023/06/24 08:28:51;;;;;;;10.50;9.10;;;;;;;19.09;100.00;101224.27;105625;1257;75110;-71
2023/06/24 08:31:22;;;;;;;12.50;10.50;;;;;;;19.15;100.00;101229.17;105705;1253;83378;-69
2023/06/24 08:33:54;;;;;;;10.70;9.20;;;;;;;19.19;100.00;101227.38;105626;1253;72775;-69
2023/06/24 08:36:23;;;;;;;13.20;9.10;;;;;;;19.23;99.97;101226.27;105638;1257;69192;-68
2023/06/24 08:38:52;;;;;;;10.20;8.00;;;;;;;19.29;99.61;101224.48;105553;1257;69112;-68
2023/06/24 08:41:20;;;;;;;11.60;8.50;;;;;;;19.36;99.59;101229.14;105501;1256;74968;-68
2023/06/24 08:43:49;;;;;;;11.30;8.10;;;;;;;19.45;98.94;101230.74;105691;1257;83372;-70
2023/06/24 08:46:17;;;;;;;9.90;7.50;;;;;;;19.51;98.58;101226.48;105493;1257;73933;-70
2023/06/24 08:48:48;;;;;;;9.50;8.00;;;;;;;19.61;98.25;101223.38;105422;1254;69187;-70
2023/06/24 08:51:21;;;;;;;10.60;7.70;;;;;;;19.72;97.67;101214.40;105600;1253;69630;-70
2023/06/24 08:53:50;;;;;;;9.60;7.70;;;;;;;19.83;97.65;101216.70;105448;1254;74998;-71
2023/06/24 08:56:18;;;;;;;8.40;7.00;;;;;;;20.02;98.06;101215.89;105537;1257;83369;-70
2023/06/24 08:58:46;;;;;;;10.30;8.70;;;;;;;20.24;97.62;101219.46;105590;1254;73606;-67
2023/06/24 09:01:15;;;;;;;9.90;8.70;;;;;;;20.37;96.78;101214.15;105507;1257;69179;-79
2023/06/24 09:03:43;;;;;;;9.30;7.10;;;;;;;20.51;96.28;101215.91;105639;1255;69187;-78
2023/06/24 09:06:12;;;;;;;9.80;7.10;;;;;;;20.63;95.54;101210.20;105714;1254;74884;-72
2023/06/24 09:08:41;;;;;;;9.90;6.80;;;;;;;20.76;95.02;101208.63;105579;1255;82594;-71
2023/06/24 09:11:09;;;;;;;8.10;6.70;;;;;;;20.93;94.35;101207.98;105518;1257;73019;-71
2023/06/24 09:13:38;;;;;;;8.90;6.80;;;;;;;21.18;94.12;101205.23;105661;1256;69208;-79
2023/06/24 09:16:12;;;;;;;10.40;6.90;;;;;;;21.34;92.58;101208.21;105628;1253;69112;-76
2023/06/24 09:18:40;;;;;;;7.90;5.90;;;;;;;21.40;91.54;101209.11;105678;1254;75375;-75
2023/06/24 09:21:10;;;;;;;7.90;6.20;;;;;;;21.46;90.95;101208.30;105567;1255;83442;-75
2023/06/24 09:23:39;;;;;;;7.40;6.70;;;;;;;21.64;91.01;101206.47;105765;1254;73618;-75
2023/06/24 09:26:11;;;;;;;7.10;5.80;;;;;;;21.81;90.38;101206.86;105777;1253;69022;-75
2023/06/24 09:28:39;;;;;;;9.10;6.30;;;;;;;21.89;89.73;101209.19;105739;1254;69192;-74
2023/06/24 09:31:09;;;;;;;6.10;5.30;;;;;;;21.95;89.14;101212.85;105538;1257;73872;-73
2023/06/24 09:33:47;;;;;;;6.50;5.80;;;;;;;22.12;88.80;101210.93;105494;1253;82594;-75
2023/06/24 09:36:16;;;;;;;7.30;6.00;;;;;;;22.31;88.63;101209.53;105875;1253;72154;-73
2023/06/24 09:38:45;;;;;;;6.20;5.50;;;;;;;22.48;87.68;101207.72;105766;1256;69139;-74
2023/06/24 09:41:14;;;;;;;7.90;5.70;;;;;;;22.68;87.27;101209.39;105674;1254;69242;-75
2023/06/24 09:43:47;;;;;;;7.30;5.30;;;;;;;22.84;86.35;101210.06;105636;1254;75150;-80
2023/06/24 09:46:15;;;;;;;7.60;5.50;;;;;;;22.88;85.20;101218.25;105620;1253;83569;-82
2023/06/24 09:48:44;;;;;;;7.60;5.50;;;;;;;22.75;83.91;101215.31;105634;1257;73975;-82
2023/06/24 09:51:13;;;;;;;6.30;5.60;;;;;;;22.75;83.38;101214.14;105601;1256;69190;-81
2023/06/24 09:53:42;;;;;;;9.70;5.70;;;;;;;22.87;83.31;101211.39;105550;1253;69923;-84
2023/06/24 09:56:11;;;;;;;7.40;5.30;;;;;;;23.02;82.83;101209.40;105559;1253;74118;-86
2023/06/24 09:58:41;;;;;;;8.20;5.90;;;;;;;23.19;82.43;101209.86;105496;1253;83908;-88
2023/06/24 10:01:09;;;;;;;6.80;5.40;;;;;;;23.39;82.17;101209.42;105482;1256;73341;-86
2023/06/24 10:03:38;;;;;;;7.20;5.60;;;;;;;23.40;81.07;101211.08;105579;1255;69173;-74
2023/06/24 10:06:08;;;;;;;5.90;5.30;;;;;;;23.43;79.16;101211.42;105568;1256;69164;-85
2023/06/24 10:08:37;;;;;;;5.80;5.10;;;;;;;23.59;78.59;101206.73;105630;1256;74253;-84
2023/06/24 10:11:05;;;;;;;6.20;5.10;;;;;;;23.84;78.36;101209.44;105544;1253;83495;-88
2023/06/24 10:13:34;;;;;;;6.50;4.90;;;;;;;23.94;78.07;101210.04;105563;1256;73033;-83
2023/06/24 10:16:02;;;;;;;6.90;5.30;;;;;;;23.96;76.85;101213.45;105662;1256;69430;-87
2023/06/24 10:18:30;;;;;;;6.00;5.20;;;;;;;23.84;75.97;101218.55;105594;1256;69181;-83
2023/06/24 10:20:59;;;;;;;5.30;4.80;;;;;;;23.62;75.22;101215.44;105627;1255;73967;-82
2023/06/24 10:23:43;;;;;;;6.80;5.30;;;;;;;23.64;75.51;101217.21;105614;1256;83652;-75
2023/06/24 10:26:28;;;;;;;5.40;4.40;;;;;;;23.90;75.77;101211.28;105566;1253;73837;-77
2023/06/24 10:29:05;;;;;;;6.70;5.50;;;;;;;24.16;75.32;101212.22;105609;1253;69184;-78
2023/06/24 10:31:40;;;;;;;6.50;5.50;;;;;;;24.42;74.68;101206.37;105631;1255;69139;-75
2023/06/24 10:34:37;;;;;;;6.10;4.90;;;;;;;24.78;74.47;101204.78;105542;1253;73937;-77
2023/06/24 10:37:24;;;;;;;5.00;4.50;;;;;;;25.21;73.29;101197.58;105322;1253;82509;-76
2023/06/24 10:39:54;;;;;;;7.10;5.70;;;;;;;25.31;71.48;101194.02;105612;1253;73742;-78
2023/06/24 10:42:28;;;;;;;5.60;4.90;;;;;;;25.50;70.77;101192.55;105561;1254;69186;-74
2023/06/24 10:44:57;;;;;;;5.70;5.00;;;;;;;25.94;71.40;101197.21;105562;1253;69256;-75
2023/06/24 10:47:27;;;;;;;5.20;4.60;;;;;;;26.40;70.48;101186.48;105646;1252;75068;-76
2023/06/24 10:49:55;;;;;;;7.00;4.80;;;;;;;26.41;69.40;101183.53;105508;1256;83718;-76
2023/06/24 10:52:24;;;;;;;6.90;5.00;;;;;;;26.23;68.66;101186.75;105596;1253;72652;-76
2023/06/24 10:54:53;;;;;;;5.40;4.80;;;;;;;25.97;67.71;101186.94;105622;1255;69084;-75
2023/06/24 10:57:27;;;;;;;4.70;4.30;;;;;;;25.70;66.93;101183.41;105586;1254;69192;-76
2023/06/24 10:59:56;;;;;;;7.40;4.70;;;;;;;25.80;67.27;101181.84;105600;1254;74914;-74
2023/06/24 11:02:26;;;;;;;6.20;4.60;;;;;;;26.18;67.23;101179.91;105596;1253;83614;-77
2023/06/24 11:05:01;;;;;;;6.90;4.90;;;;;;;26.50;66.47;101177.84;105613;1256;72090;-78
2023/06/24 11:07:34;;;;;;;8.40;4.50;;;;;;;26.74;65.45;101170.25;105622;1253;69186;-74
2023/06/24 11:10:05;;;;;;;5.20;4.20;;;;;;;27.13;65.67;101163.98;105600;1253;69532;-70
2023/06/24 11:12:35;;;;;;;4.90;4.50;;;;;;;27.26;64.30;101163.06;105669;1252;73961;-70
2023/06/24 11:15:06;;;;;;;6.00;4.20;;;;;;;27.10;63.30;101162.96;105563;1253;83139;-72
2023/06/24 11:17:35;;;;;;;4.90;4.30;;;;;;;27.06;62.74;101163.02;105625;1256;73982;-78
2023/06/24 11:20:22;;;;;;;4.50;4.10;;;;;;;27.28;63.31;101165.75;105619;1255;69171;-72
2023/06/24 11:22:50;;;;;;;5.00;4.50;;;;;;;27.44;62.52;101166.02;105565;1253;69232;-75
2023/06/24 11:25:20;;;;;;;5.00;4.50;;;;;;;27.52;62.16;101165.09;105538;1256;73600;-74
2023/06/24 11:27:54;;;;;;;4.80;4.10;;;;;;;27.87;61.45;101162.17;105610;1255;83085;-71
2023/06/24 11:30:22;;;;;;;7.10;3.70;;;;;;;28.25;60.81;101160.22;105586;1256;73863;-72
2023/06/24 11:32:50;;;;;;;6.40;4.30;;;;;;;28.53;60.28;101156.44;105629;1254;69228;-71
2023/06/24 11:35:19;;;;;;;5.90;4.00;;;;;;;28.90;59.77;101150.98;105575;1255;69162;-74
2023/06/24 11:37:49;;;;;;;4.60;4.20;;;;;;;29.30;58.71;101151.54;105648;1253;75009;-72
2023/06/24 11:40:19;;;;;;;4.30;3.90;;;;;;;29.57;57.50;101148.14;105612;1256;83487;-73
2023/06/24 11:42:50;;;;;;;4.90;4.40;;;;;;;29.28;56.33;101148.17;105619;1254;73862;-76
2023/06/24 11:45:21;;;;;;;4.20;3.90;;;;;;;28.86;55.90;101147.45;105548;1253;69212;-74
2023/06/24 11:47:49;;;;;;;5.90;4.10;;;;;;;28.59;55.93;101147.48;105602;1253;69199;-71
2023/06/24 11:50:18;;;;;;;6.20;4.40;;;;;;;28.64;56.14;101140.67;105569;1253;75087;-73
2023/06/24 11:52:49;;;;;;;5.20;4.70;;;;;;;28.83;56.30;101135.36;105428;1254;83367;-72